Time;durP1;ratioP1;P1;durP2;ratioP2;P2;SDS_P1;SDS_P2;PMS_P1;PMS_P2;Temp;Humidity;BMP_temperature;BMP_pressure;BME280_temperature;BME280_humidity;BME280_pressure;Samples;Min_cycle;Max_cycle;Signal;HPM_P1;HPM_P2
2021/12/10 00:01:24;;;;;;;1.60;0.67;;;21.70;99.90;;;;;;5065526;28;20207;-68
2021/12/10 00:03:54;;;;;;;2.03;0.53;;;21.90;99.90;;;;;;5073662;28;20167;-68
2021/12/10 00:06:31;;;;;;;1.33;0.50;;;21.90;99.90;;;;;;5073799;28;20190;-67
2021/12/10 00:09:08;;;;;;;3.00;0.70;;;22.20;99.90;;;;;;5073208;28;20187;-68
2021/12/10 00:12:00;;;;;;;1.60;0.70;;;22.50;99.90;;;;;;5071492;28;20191;-68
2021/12/10 00:14:30;;;;;;;3.80;0.83;;;22.20;99.90;;;;;;5073302;28;20294;-67
2021/12/10 00:16:59;;;;;;;4.87;0.97;;;22.10;99.90;;;;;;5072482;28;20199;-68
2021/12/10 00:19:42;;;;;;;2.67;1.23;;;22.20;99.90;;;;;;5073608;28;20183;-69
2021/12/10 00:22:14;;;;;;;1.23;0.67;;;22.00;99.90;;;;;;5073471;28;20223;-66
2021/12/10 00:24:43;;;;;;;6.17;1.20;;;21.90;99.90;;;;;;5072650;28;20175;-68
2021/12/10 00:27:12;;;;;;;6.43;1.20;;;21.80;99.90;;;;;;5067233;28;20720;-65
2021/12/10 00:29:49;;;;;;;3.77;0.80;;;21.80;99.90;;;;;;5072333;28;20551;-67
2021/12/10 00:32:39;;;;;;;1.60;0.87;;;21.70;99.90;;;;;;5073359;28;20555;-71
2021/12/10 00:35:15;;;;;;;0.90;0.57;;;21.60;99.90;;;;;;5071732;28;20612;-70
2021/12/10 00:37:42;;;;;;;2.50;0.50;;;21.00;99.90;;;;;;5072725;28;20266;-64
2021/12/10 00:40:12;;;;;;;3.23;0.53;;;20.50;99.90;;;;;;5071916;28;20183;-66
2021/12/10 00:42:39;;;;;;;1.83;0.40;;;19.70;99.90;;;;;;5072893;28;20688;-71
2021/12/10 00:45:10;;;;;;;2.00;0.50;;;19.40;99.90;;;;;;5072713;28;20202;-66
2021/12/10 00:47:38;;;;;;;6.17;0.93;;;19.10;99.90;;;;;;5072645;28;20175;-65
2021/12/10 00:50:23;;;;;;;2.83;1.30;;;18.40;99.90;;;;;;5072650;28;20270;-63
2021/12/10 00:52:53;;;;;;;14.73;1.87;;;15.90;99.90;;;;;;5072750;28;20608;-64
2021/12/10 00:55:21;;;;;;;5.40;1.40;;;15.10;99.90;;;;;;5067206;28;20822;-63
2021/12/10 00:57:48;;;;;;;4.90;1.30;;;14.90;99.90;;;;;;5072572;28;20187;-64
2021/12/10 01:00:23;;;;;;;1.87;0.97;;;14.80;99.90;;;;;;5073279;28;20194;-63
2021/12/10 01:02:52;;;;;;;3.20;1.37;;;14.60;99.90;;;;;;5072738;28;20305;-65
2021/12/10 01:05:21;;;;;;;2.57;0.90;;;14.50;99.90;;;;;;5066555;28;20308;-64
2021/12/10 01:07:49;;;;;;;2.03;0.90;;;14.50;99.90;;;;;;5053647;28;20218;-64
2021/12/10 01:10:29;;;;;;;0.63;0.50;;;14.50;99.90;;;;;;5071782;28;20271;-65
2021/12/10 01:13:00;;;;;;;0.50;0.40;;;14.40;99.90;;;;;;5072248;28;20571;-63
2021/12/10 01:25:07;;;;;;;3.00;1.10;;;14.40;99.90;;;;;;5069550;28;20241;-64
2021/12/10 01:27:26;;;;;;;1.63;0.73;;;14.60;99.90;;;;;;5054065;28;20509;-64
2021/12/10 01:29:56;;;;;;;1.67;0.83;;;14.70;99.90;;;;;;5071137;28;20308;-62
2021/12/10 01:32:29;;;;;;;2.73;1.00;;;15.00;99.90;;;;;;5072210;28;20270;-66
2021/12/10 01:34:57;;;;;;;4.43;0.80;;;15.00;99.90;;;;;;5071118;28;20186;-63
2021/12/10 01:37:25;;;;;;;1.53;0.90;;;15.10;99.90;;;;;;5070069;28;20321;-64
2021/12/10 01:39:55;;;;;;;0.93;0.70;;;15.00;99.90;;;;;;5064622;28;20187;-62
2021/12/10 01:44:57;;;;;;;3.83;1.00;;;15.00;99.90;;;;;;5072016;28;20183;-64
2021/12/10 01:47:30;;;;;;;1.50;0.70;;;15.00;99.90;;;;;;5072042;28;20208;-66
2021/12/10 01:49:58;;;;;;;2.97;1.17;;;14.90;99.90;;;;;;5069794;28;20190;-65
2021/12/10 01:52:27;;;;;;;2.73;1.03;;;15.00;99.90;;;;;;5071365;28;20217;-65
2021/12/10 01:55:00;;;;;;;3.10;0.80;;;15.10;99.90;;;;;;5071492;28;20745;-65
2021/12/10 01:57:30;;;;;;;3.60;0.70;;;15.20;99.90;;;;;;5072027;28;20256;-65
2021/12/10 01:59:58;;;;;;;5.07;0.90;;;15.10;99.90;;;;;;5071198;28;20274;-66
2021/12/10 02:02:34;;;;;;;1.77;0.93;;;15.10;99.90;;;;;;5063564;28;20222;-64
2021/12/10 02:05:02;;;;;;;3.97;0.90;;;14.90;99.90;;;;;;5070135;28;20210;-65
2021/12/10 02:07:29;;;;;;;2.47;0.73;;;15.00;99.90;;;;;;5068978;28;20184;-65
2021/12/10 02:09:58;;;;;;;3.13;0.80;;;14.80;99.90;;;;;;5070363;28;20183;-65
2021/12/10 02:12:25;;;;;;;2.90;0.80;;;14.70;99.90;;;;;;5071700;28;20187;-65
2021/12/10 02:15:02;;;;;;;4.30;0.93;;;14.70;99.90;;;;;;5070351;28;20656;-64
2021/12/10 02:17:35;;;;;;;8.07;1.03;;;14.90;99.90;;;;;;5068978;28;20189;-67
2021/12/10 02:20:15;;;;;;;4.60;0.97;;;15.10;99.90;;;;;;5070252;28;20198;-66
2021/12/10 02:22:44;;;;;;;3.57;0.90;;;15.20;99.90;;;;;;5071016;28;20225;-67
2021/12/10 02:25:13;;;;;;;3.37;0.80;;;15.20;99.90;;;;;;5069671;28;20191;-64
2021/12/10 02:27:41;;;;;;;3.63;1.07;;;15.10;99.90;;;;;;5070606;28;20194;-66
2021/12/10 02:30:12;;;;;;;3.70;0.90;;;15.10;99.90;;;;;;5069549;28;20558;-69
2021/12/10 02:32:39;;;;;;;3.03;0.90;;;15.10;99.90;;;;;;5071219;28;20191;-69
2021/12/10 02:35:11;;;;;;;7.10;1.10;;;15.00;99.90;;;;;;5071080;28;20700;-68
2021/12/10 02:37:40;;;;;;;1.97;0.80;;;15.20;99.90;;;;;;5071432;28;20669;-69
2021/12/10 02:40:09;;;;;;;3.10;0.60;;;15.20;99.90;;;;;;5068759;28;20240;-68
2021/12/10 02:42:37;;;;;;;3.20;0.93;;;15.40;99.90;;;;;;5071218;28;20703;-68
2021/12/10 02:45:08;;;;;;;1.20;0.90;;;15.80;99.90;;;;;;5070720;28;20187;-68
2021/12/10 02:47:35;;;;;;;2.90;0.93;;;16.00;99.90;;;;;;5071157;28;20277;-66
2021/12/10 02:50:05;;;;;;;0.67;0.50;;;16.10;99.90;;;;;;5070984;28;20195;-67
2021/12/10 02:52:32;;;;;;;1.70;0.70;;;16.20;99.90;;;;;;5070958;28;20198;-65
2021/12/10 02:55:00;;;;;;;1.83;0.70;;;16.40;99.90;;;;;;5069808;28;20732;-68
2021/12/10 02:57:29;;;;;;;0.93;0.70;;;16.30;99.90;;;;;;5071024;28;20731;-68
2021/12/10 02:59:56;;;;;;;3.03;0.70;;;16.20;99.90;;;;;;5070776;28;20248;-67
2021/12/10 03:02:26;;;;;;;3.53;0.97;;;16.20;99.90;;;;;;5052747;28;20618;-68
2021/12/10 03:04:53;;;;;;;3.00;1.40;;;16.30;99.90;;;;;;5069823;28;20248;-66
2021/12/10 03:07:22;;;;;;;3.00;1.00;;;16.30;99.90;;;;;;5070842;28;20660;-67
2021/12/10 03:09:52;;;;;;;2.03;0.90;;;16.30;99.90;;;;;;5070406;28;20184;-69
2021/12/10 03:12:21;;;;;;;0.93;0.80;;;16.10;99.90;;;;;;5071383;28;20657;-70
2021/12/10 03:14:54;;;;;;;2.43;0.90;;;15.90;99.90;;;;;;5070755;28;20200;-71
2021/12/10 03:17:25;;;;;;;4.30;1.60;;;15.70;99.90;;;;;;5071282;28;20190;-68
2021/12/10 03:19:53;;;;;;;3.13;1.10;;;15.70;99.90;;;;;;5069622;28;20199;-70
2021/12/10 03:22:22;;;;;;;2.47;1.27;;;15.70;99.90;;;;;;5070884;28;20235;-63
2021/12/10 03:24:52;;;;;;;1.60;0.90;;;15.60;99.90;;;;;;5070213;28;20341;-64
2021/12/10 03:27:22;;;;;;;2.93;0.90;;;15.50;99.90;;;;;;5069300;28;20187;-65
2021/12/10 03:29:50;;;;;;;1.67;0.73;;;15.40;99.90;;;;;;5071019;28;20183;-68
2021/12/10 03:32:25;;;;;;;2.50;1.07;;;15.30;99.90;;;;;;5074435;28;20487;-66
2021/12/10 03:34:53;;;;;;;1.87;1.00;;;15.40;99.90;;;;;;5074400;28;20190;-63
2021/12/10 03:37:21;;;;;;;2.10;1.03;;;15.50;99.90;;;;;;5074598;28;20185;-66
2021/12/10 03:39:50;;;;;;;2.93;0.90;;;15.50;99.90;;;;;;5073680;28;20195;-63
2021/12/10 03:42:18;;;;;;;1.60;0.90;;;15.50;99.90;;;;;;5074183;28;20680;-65
2021/12/10 03:44:46;;;;;;;1.00;0.90;;;15.50;99.90;;;;;;5073567;28;20181;-66
2021/12/10 03:47:14;;;;;;;4.10;0.73;;;15.60;99.90;;;;;;5066365;28;20193;-63
2021/12/10 03:49:42;;;;;;;1.03;0.63;;;15.70;99.90;;;;;;5072958;28;20183;-64
2021/12/10 03:52:10;;;;;;;1.43;0.90;;;15.70;99.90;;;;;;5072990;28;20593;-67
2021/12/10 03:54:39;;;;;;;0.93;0.80;;;15.70;99.90;;;;;;5068174;28;20281;-68
2021/12/10 03:57:07;;;;;;;2.20;0.83;;;15.70;99.90;;;;;;5071435;28;20643;-68
2021/12/10 03:59:36;;;;;;;2.27;1.00;;;15.70;99.90;;;;;;5072577;28;20221;-70
2021/12/10 04:02:06;;;;;;;3.27;1.10;;;15.80;99.90;;;;;;5070730;28;20211;-67
2021/12/10 04:04:40;;;;;;;2.17;0.73;;;15.80;99.90;;;;;;5055203;28;20179;-70
2021/12/10 04:07:14;;;;;;;1.70;0.93;;;15.90;99.90;;;;;;5073090;28;20645;-71
2021/12/10 04:09:43;;;;;;;0.90;0.50;;;15.90;99.90;;;;;;5072983;28;20190;-69
2021/12/10 04:12:11;;;;;;;1.33;0.80;;;15.90;99.90;;;;;;5072484;28;20181;-67
2021/12/10 04:14:40;;;;;;;0.80;0.50;;;16.00;99.90;;;;;;5072883;28;20660;-65
2021/12/10 04:17:08;;;;;;;2.63;0.60;;;16.00;99.90;;;;;;5072151;28;20562;-65
2021/12/10 04:19:37;;;;;;;0.77;0.50;;;16.10;99.90;;;;;;5073636;28;20225;-66
2021/12/10 04:22:09;;;;;;;1.03;0.50;;;16.40;99.90;;;;;;5073205;28;20225;-64
2021/12/10 04:24:38;;;;;;;1.80;0.60;;;17.10;99.90;;;;;;5073783;28;20236;-65
2021/12/10 04:27:07;;;;;;;0.70;0.40;;;17.40;99.90;;;;;;5072922;28;20200;-65
2021/12/10 04:29:35;;;;;;;1.00;0.60;;;17.40;99.90;;;;;;5070588;28;21021;-69
2021/12/10 04:32:05;;;;;;;1.20;0.63;;;17.50;99.90;;;;;;5071778;28;20187;-69
2021/12/10 04:34:32;;;;;;;1.67;0.70;;;17.40;99.90;;;;;;5072407;28;20186;-67
2021/12/10 04:37:02;;;;;;;0.60;0.50;;;17.20;99.90;;;;;;5072916;28;20710;-68
2021/12/10 04:39:30;;;;;;;1.27;0.80;;;17.20;99.90;;;;;;5072585;28;20179;-67
2021/12/10 04:41:57;;;;;;;0.90;0.70;;;17.00;99.90;;;;;;5072826;28;20219;-67
2021/12/10 04:44:25;;;;;;;0.93;0.60;;;17.10;99.90;;;;;;5073357;28;20189;-67
2021/12/10 04:46:53;;;;;;;1.33;0.67;;;17.00;99.90;;;;;;5071628;28;20281;-68
2021/12/10 04:49:20;;;;;;;0.70;0.70;;;17.00;99.90;;;;;;5073029;28;20650;-69
2021/12/10 04:51:51;;;;;;;1.60;0.60;;;16.90;99.90;;;;;;5073328;28;20276;-68
2021/12/10 04:54:21;;;;;;;1.23;0.40;;;16.90;99.90;;;;;;5073224;28;20230;-68
2021/12/10 04:56:50;;;;;;;0.70;0.60;;;16.80;99.90;;;;;;5072378;28;20178;-69
2021/12/10 04:59:18;;;;;;;0.70;0.57;;;16.70;99.90;;;;;;5073167;28;20251;-67
2021/12/10 05:01:47;;;;;;;1.47;0.60;;;16.70;99.90;;;;;;5071444;28;20229;-68
2021/12/10 05:04:15;;;;;;;1.17;0.37;;;16.70;99.90;;;;;;5073379;28;20182;-69
2021/12/10 05:06:43;;;;;;;0.70;0.43;;;16.70;99.90;;;;;;5072294;28;20187;-68
2021/12/10 05:09:13;;;;;;;1.57;0.60;;;16.80;99.90;;;;;;5073098;28;20201;-68
2021/12/10 05:11:41;;;;;;;0.40;0.40;;;16.90;99.90;;;;;;5072741;28;20194;-67
2021/12/10 05:14:09;;;;;;;1.20;0.43;;;17.00;99.90;;;;;;5065934;28;20274;-68
2021/12/10 05:16:43;;;;;;;0.40;0.40;;;17.00;99.90;;;;;;5072764;28;20189;-68
2021/12/10 05:19:13;;;;;;;1.40;0.60;;;17.20;99.90;;;;;;5065609;28;20542;-68
2021/12/10 05:21:43;;;;;;;0.90;0.50;;;17.30;99.90;;;;;;5072417;28;20228;-68
2021/12/10 05:24:11;;;;;;;2.10;0.60;;;17.40;99.90;;;;;;5066001;28;20207;-70
2021/12/10 05:26:38;;;;;;;0.50;0.40;;;17.50;99.90;;;;;;5072177;28;20213;-68
2021/12/10 05:29:07;;;;;;;0.43;0.30;;;17.80;99.90;;;;;;5072324;28;20175;-69
2021/12/10 05:31:39;;;;;;;0.30;0.30;;;18.10;99.90;;;;;;5072430;28;20192;-69
2021/12/10 05:34:07;;;;;;;0.47;0.30;;;18.10;99.90;;;;;;5072435;28;20299;-67
2021/12/10 05:36:34;;;;;;;0.97;0.80;;;18.10;99.90;;;;;;5072184;28;20172;-70
2021/12/10 05:39:03;;;;;;;0.90;0.50;;;18.30;99.90;;;;;;5071277;28;20528;-66
2021/12/10 05:41:31;;;;;;;2.47;0.73;;;18.70;99.90;;;;;;5071441;28;20603;-65
2021/12/10 05:43:59;;;;;;;0.57;0.30;;;19.50;99.90;;;;;;5072081;28;20218;-68
2021/12/10 05:46:27;;;;;;;0.47;0.33;;;20.10;99.90;;;;;;5069340;28;20707;-65
2021/12/10 05:48:54;;;;;;;0.63;0.20;;;19.90;99.90;;;;;;5071676;28;20179;-66
2021/12/10 05:51:21;;;;;;;2.23;0.40;;;19.70;99.90;;;;;;5071863;28;20179;-66
2021/12/10 05:53:49;;;;;;;0.20;0.20;;;19.50;99.90;;;;;;5071024;28;20219;-69
2021/12/10 05:56:17;;;;;;;0.20;0.20;;;19.50;99.90;;;;;;5071712;28;20212;-66
2021/12/10 05:58:45;;;;;;;0.30;0.30;;;19.50;99.90;;;;;;5069385;28;20689;-67
2021/12/10 06:01:16;;;;;;;0.43;0.30;;;19.20;99.90;;;;;;5066425;28;20199;-68
2021/12/10 06:03:51;;;;;;;0.80;0.40;;;19.00;99.90;;;;;;5064061;28;20226;-66
2021/12/10 06:06:24;;;;;;;0.50;0.20;;;18.80;99.90;;;;;;5070371;28;20179;-68
2021/12/10 06:08:52;;;;;;;0.57;0.30;;;18.70;99.90;;;;;;5070637;28;20269;-68
2021/12/10 06:11:20;;;;;;;0.20;0.20;;;18.70;99.90;;;;;;5071178;28;20229;-66
2021/12/10 06:13:48;;;;;;;1.37;0.27;;;18.50;99.90;;;;;;5069849;28;20190;-68
2021/12/10 06:16:16;;;;;;;0.40;0.40;;;18.50;99.90;;;;;;5071880;28;20277;-67
2021/12/10 06:18:44;;;;;;;0.40;0.40;;;18.60;99.90;;;;;;5070730;28;20217;-69
2021/12/10 06:21:12;;;;;;;0.40;0.40;;;18.50;99.90;;;;;;5069814;28;20239;-70
2021/12/10 06:23:40;;;;;;;1.00;0.40;;;18.50;99.90;;;;;;5068770;28;20187;-65
2021/12/10 06:26:07;;;;;;;0.37;0.37;;;18.40;99.90;;;;;;5063093;28;20648;-66
2021/12/10 06:28:36;;;;;;;0.60;0.47;;;18.40;99.90;;;;;;5071429;28;20186;-68
2021/12/10 06:31:04;;;;;;;0.60;0.40;;;18.40;99.90;;;;;;5071269;28;20263;-68
2021/12/10 06:33:32;;;;;;;0.23;0.23;;;18.40;99.90;;;;;;5070533;28;20305;-67
2021/12/10 06:36:03;;;;;;;0.87;0.37;;;18.30;99.90;;;;;;5066896;28;20179;-66
2021/12/10 06:38:31;;;;;;;0.30;0.30;;;18.20;99.90;;;;;;5071299;28;20656;-68
2021/12/10 06:40:59;;;;;;;0.20;0.20;;;18.10;99.90;;;;;;5070321;28;20230;-68
2021/12/10 06:43:27;;;;;;;0.60;0.50;;;18.00;99.90;;;;;;5071542;28;20206;-69
2021/12/10 06:45:55;;;;;;;0.40;0.40;;;18.10;99.90;;;;;;5069203;28;20179;-69
2021/12/10 06:48:25;;;;;;;2.23;0.30;;;18.10;99.90;;;;;;5071304;28;20171;-67
2021/12/10 06:50:58;;;;;;;0.40;0.30;;;18.10;99.90;;;;;;5051872;28;20182;-68
2021/12/10 06:53:28;;;;;;;0.30;0.30;;;18.20;99.90;;;;;;5068406;28;20242;-68
2021/12/10 06:55:56;;;;;;;0.50;0.40;;;18.20;99.90;;;;;;5070056;28;20687;-67
2021/12/10 06:58:24;;;;;;;1.30;0.30;;;18.30;99.90;;;;;;5070469;28;20183;-68
2021/12/10 07:00:59;;;;;;;0.40;0.33;;;18.30;99.90;;;;;;5070750;28;20178;-68
2021/12/10 07:03:29;;;;;;;0.40;0.30;;;18.20;99.90;;;;;;5071053;28;20182;-68
2021/12/10 07:05:59;;;;;;;0.30;0.30;;;18.10;99.90;;;;;;5075024;28;20178;-65
2021/12/10 07:08:30;;;;;;;0.40;0.40;;;18.10;99.90;;;;;;5075202;28;20718;-66
2021/12/10 07:10:58;;;;;;;0.23;0.23;;;18.00;99.90;;;;;;5073463;28;20187;-67
2021/12/10 07:13:26;;;;;;;0.30;0.30;;;17.90;99.90;;;;;;5075144;28;20205;-70
2021/12/10 07:15:57;;;;;;;4.20;0.53;;;17.80;99.90;;;;;;5074236;28;20213;-67
2021/12/10 07:18:25;;;;;;;0.30;0.30;;;17.60;99.90;;;;;;5073992;28;20187;-69
2021/12/10 07:20:53;;;;;;;0.77;0.40;;;17.30;99.90;;;;;;5073406;28;20190;-66
2021/12/10 07:23:22;;;;;;;0.30;0.30;;;17.00;99.90;;;;;;5073698;28;20218;-66
2021/12/10 07:25:51;;;;;;;0.30;0.30;;;16.70;99.90;;;;;;5074082;28;20668;-66
2021/12/10 07:28:18;;;;;;;1.27;0.40;;;16.50;99.90;;;;;;5072728;28;20673;-66
2021/12/10 07:30:47;;;;;;;0.40;0.40;;;16.30;99.90;;;;;;5074419;28;20183;-65
2021/12/10 07:33:16;;;;;;;0.40;0.40;;;16.20;99.90;;;;;;5071201;28;20728;-67
2021/12/10 07:35:47;;;;;;;0.80;0.30;;;16.30;99.90;;;;;;5074464;28;20325;-66
2021/12/10 07:38:15;;;;;;;0.80;0.50;;;16.30;99.90;;;;;;5071635;28;20194;-66
2021/12/10 07:40:42;;;;;;;0.50;0.47;;;16.30;99.90;;;;;;5072912;28;20675;-67
2021/12/10 07:43:11;;;;;;;0.97;0.60;;;16.30;99.90;;;;;;5074175;28;20371;-69
2021/12/10 07:45:40;;;;;;;0.50;0.50;;;16.30;99.90;;;;;;5074421;28;20177;-65
2021/12/10 07:48:11;;;;;;;0.90;0.60;;;16.30;99.90;;;;;;5074122;28;20207;-68
2021/12/10 07:50:43;;;;;;;0.83;0.53;;;16.30;99.90;;;;;;5071171;28;20570;-69
2021/12/10 07:53:10;;;;;;;1.27;0.50;;;16.30;99.90;;;;;;5074429;28;20189;-67
2021/12/10 07:55:40;;;;;;;0.30;0.30;;;16.40;99.90;;;;;;5074526;28;20713;-66
2021/12/10 07:58:10;;;;;;;0.70;0.47;;;16.30;99.90;;;;;;5074755;28;20194;-65
2021/12/10 08:00:40;;;;;;;0.50;0.50;;;16.40;99.90;;;;;;5071547;28;20599;-65
2021/12/10 08:03:08;;;;;;;0.60;0.50;;;16.40;99.90;;;;;;5071301;28;20561;-67
2021/12/10 08:05:37;;;;;;;1.70;0.43;;;16.50;99.90;;;;;;5074681;28;20649;-67
2021/12/10 08:08:08;;;;;;;0.87;0.40;;;16.50;99.90;;;;;;5072743;28;20193;-65
2021/12/10 08:10:38;;;;;;;1.20;0.60;;;16.50;99.90;;;;;;5071607;28;20645;-68
2021/12/10 08:13:06;;;;;;;1.37;0.50;;;16.50;99.90;;;;;;5072360;28;20190;-66
2021/12/10 08:15:34;;;;;;;1.10;0.60;;;16.50;99.90;;;;;;5070471;28;20182;-66
2021/12/10 08:18:02;;;;;;;0.57;0.57;;;16.60;99.90;;;;;;5073731;28;20174;-69
2021/12/10 08:20:31;;;;;;;0.60;0.50;;;16.60;99.90;;;;;;5055526;28;20682;-66
2021/12/10 08:22:58;;;;;;;1.83;0.60;;;16.60;99.90;;;;;;5073349;28;20230;-67
2021/12/10 08:25:27;;;;;;;1.40;0.57;;;16.60;99.90;;;;;;5072533;28;20628;-68
2021/12/10 08:27:57;;;;;;;4.77;0.50;;;16.70;99.90;;;;;;5073630;28;20220;-67
2021/12/10 08:30:27;;;;;;;0.90;0.60;;;16.70;99.90;;;;;;5072639;28;20266;-65
2021/12/10 08:32:56;;;;;;;0.73;0.50;;;16.70;99.90;;;;;;5072738;28;20770;-67
2021/12/10 08:35:27;;;;;;;1.27;0.60;;;16.70;99.90;;;;;;5080257;28;20186;-67
2021/12/10 08:37:55;;;;;;;0.93;0.63;;;16.70;99.90;;;;;;5073840;28;20185;-67
2021/12/10 08:40:31;;;;;;;0.90;0.70;;;16.70;99.90;;;;;;5072651;28;20229;-68
2021/12/10 08:42:59;;;;;;;1.20;0.60;;;16.70;99.90;;;;;;5072370;28;20323;-67
2021/12/10 08:45:27;;;;;;;0.90;0.60;;;16.70;99.90;;;;;;5053905;28;20243;-69
2021/12/10 08:47:57;;;;;;;1.17;0.70;;;16.70;99.90;;;;;;5070935;28;20232;-69
2021/12/10 08:50:29;;;;;;;1.13;0.77;;;16.80;99.90;;;;;;5072459;28;20553;-66
2021/12/10 08:53:03;;;;;;;1.03;0.60;;;16.80;99.90;;;;;;5073024;28;20192;-67
2021/12/10 08:55:32;;;;;;;0.50;0.40;;;16.90;99.90;;;;;;5071666;28;20250;-68
2021/12/10 08:58:00;;;;;;;0.60;0.50;;;17.00;99.90;;;;;;5073067;28;20195;-67
2021/12/10 09:00:29;;;;;;;0.90;0.60;;;16.90;99.90;;;;;;5071899;28;20190;-65
2021/12/10 09:02:58;;;;;;;0.60;0.50;;;16.90;99.90;;;;;;5071947;28;20566;-67
2021/12/10 09:05:27;;;;;;;1.40;0.63;;;16.90;99.90;;;;;;5072372;28;20642;-69
2021/12/10 09:07:54;;;;;;;1.33;0.50;;;16.90;99.90;;;;;;5072676;28;20239;-67
2021/12/10 09:10:25;;;;;;;2.10;0.60;;;16.90;99.90;;;;;;5072531;28;20174;-71
2021/12/10 09:12:54;;;;;;;0.80;0.40;;;16.80;99.90;;;;;;5072930;28;20178;-69
2021/12/10 09:15:23;;;;;;;0.50;0.40;;;16.80;99.90;;;;;;5073118;28;20169;-74
2021/12/10 09:17:53;;;;;;;3.00;0.40;;;16.80;99.90;;;;;;5072201;28;20216;-65
2021/12/10 09:20:26;;;;;;;0.30;0.30;;;16.80;99.90;;;;;;5073307;28;20257;-66
2021/12/10 09:22:53;;;;;;;0.80;0.43;;;16.90;99.90;;;;;;5071615;28;20222;-68
2021/12/10 09:25:21;;;;;;;2.10;0.40;;;16.90;99.90;;;;;;5072270;28;20171;-69
2021/12/10 09:27:49;;;;;;;0.33;0.33;;;16.80;99.90;;;;;;5071623;28;20183;-71
2021/12/10 09:30:20;;;;;;;0.67;0.50;;;16.80;99.90;;;;;;5072796;28;20649;-70
2021/12/10 09:32:47;;;;;;;0.47;0.40;;;16.80;99.90;;;;;;5070060;28;20178;-69
2021/12/10 09:35:19;;;;;;;1.07;0.50;;;16.80;99.90;;;;;;5072465;28;20259;-67
2021/12/10 09:37:47;;;;;;;1.57;0.90;;;16.80;99.90;;;;;;5072509;28;20179;-68
2021/12/10 09:40:23;;;;;;;1.27;0.47;;;16.80;99.90;;;;;;5072365;28;20193;-69
2021/12/10 09:42:51;;;;;;;0.30;0.30;;;16.70;99.90;;;;;;5070527;28;20264;-66
2021/12/10 09:45:20;;;;;;;1.20;0.40;;;16.70;99.90;;;;;;5071966;28;20178;-72
2021/12/10 09:47:49;;;;;;;1.07;0.40;;;16.70;99.90;;;;;;5071587;28;20269;-71
2021/12/10 09:50:18;;;;;;;0.30;0.30;;;16.70;99.90;;;;;;5071332;28;20183;-72
2021/12/10 09:52:46;;;;;;;2.27;0.40;;;16.80;99.90;;;;;;5071997;28;20558;-68
2021/12/10 09:55:15;;;;;;;2.63;0.30;;;16.70;99.90;;;;;;5071253;28;20225;-69
2021/12/10 09:57:45;;;;;;;0.40;0.40;;;16.70;99.90;;;;;;5071314;28;21188;-70
2021/12/10 10:00:35;;;;;;;0.70;0.47;;;16.80;99.90;;;;;;5071965;28;20523;-67
2021/12/10 10:03:04;;;;;;;0.37;0.37;;;16.80;99.90;;;;;;5070485;28;20317;-69
2021/12/10 10:05:33;;;;;;;0.83;0.30;;;16.70;99.90;;;;;;5067610;28;20186;-73
2021/12/10 10:08:05;;;;;;;0.60;0.40;;;16.70;99.90;;;;;;5070618;28;20187;-70
2021/12/10 10:10:32;;;;;;;0.80;0.40;;;16.70;99.90;;;;;;5070976;28;20252;-78
2021/12/10 10:13:02;;;;;;;0.43;0.40;;;16.70;99.90;;;;;;5071714;28;20186;-76
2021/12/10 10:15:32;;;;;;;0.40;0.40;;;16.70;99.90;;;;;;5067307;28;20179;-72
2021/12/10 10:18:02;;;;;;;0.60;0.40;;;16.60;99.90;;;;;;5071540;28;20182;-69
2021/12/10 10:20:35;;;;;;;0.40;0.40;;;16.60;99.90;;;;;;5068855;28;20179;-70
2021/12/10 10:23:02;;;;;;;0.80;0.40;;;16.60;99.90;;;;;;5073155;28;20580;-68
2021/12/10 10:25:31;;;;;;;0.30;0.30;;;16.60;99.90;;;;;;5071090;28;20179;-67
2021/12/10 10:27:59;;;;;;;1.27;0.30;;;16.60;99.90;;;;;;5076467;28;20201;-75
2021/12/10 10:30:37;;;;;;;1.03;0.33;;;16.60;99.90;;;;;;5071405;28;20201;-69
2021/12/10 10:33:08;;;;;;;0.27;0.27;;;16.60;99.90;;;;;;5070708;28;20758;-66
2021/12/10 10:35:49;;;;;;;0.20;0.20;;;16.60;99.90;;;;;;5071240;28;20256;-66
2021/12/10 10:38:18;;;;;;;0.30;0.30;;;16.60;99.90;;;;;;5069606;28;20194;-65
2021/12/10 10:40:52;;;;;;;0.30;0.30;;;16.50;99.90;;;;;;5071712;28;20712;-70
2021/12/10 10:43:20;;;;;;;0.53;0.30;;;16.50;99.90;;;;;;5071914;28;20218;-65
2021/12/10 10:45:48;;;;;;;0.87;0.33;;;16.50;99.90;;;;;;5070915;28;20572;-71
2021/12/10 10:48:17;;;;;;;0.30;0.30;;;16.50;99.90;;;;;;5069977;28;20656;-67
2021/12/10 10:50:58;;;;;;;0.67;0.40;;;16.40;99.90;;;;;;5064365;28;20211;-66
2021/12/10 10:53:34;;;;;;;0.20;0.20;;;16.40;99.90;;;;;;5070623;28;20669;-66
2021/12/10 10:56:13;;;;;;;1.35;0.30;;;16.40;99.90;;;;;;5069767;28;20466;-73
2021/12/10 10:58:46;;;;;;;1.13;1.03;;;16.50;99.90;;;;;;5071392;28;20174;-70
2021/12/10 11:01:27;;;;;;;0.40;0.40;;;16.40;99.90;;;;;;5070132;28;20665;-69
2021/12/10 11:03:59;;;;;;;0.37;0.37;;;16.40;99.90;;;;;;5068160;28;20217;-72
2021/12/10 11:06:36;;;;;;;0.40;0.30;;;16.50;99.90;;;;;;5068357;28;20203;-67
2021/12/10 11:09:10;;;;;;;0.40;0.40;;;16.50;99.90;;;;;;5066987;28;20703;-67
2021/12/10 11:11:45;;;;;;;0.33;0.33;;;16.40;99.90;;;;;;5069231;28;20192;-71
2021/12/10 11:14:17;;;;;;;0.30;0.30;;;16.40;99.90;;;;;;5069776;28;20225;-66
2021/12/10 11:16:47;;;;;;;0.67;0.37;;;16.40;99.90;;;;;;5071037;28;20186;-71
2021/12/10 11:19:19;;;;;;;0.43;0.30;;;16.40;99.90;;;;;;5067759;28;20670;-71
2021/12/10 11:22:04;;;;;;;0.30;0.30;;;16.40;99.90;;;;;;5070801;28;20752;-67
2021/12/10 11:24:45;;;;;;;0.40;0.30;;;16.30;99.90;;;;;;5070891;28;20171;-67
2021/12/10 11:27:26;;;;;;;0.33;0.33;;;16.30;99.90;;;;;;5069467;28;20276;-72
2021/12/10 11:30:07;;;;;;;5.00;0.70;;;16.30;99.90;;;;;;5069857;28;20241;-64
2021/12/10 11:32:52;;;;;;;0.93;0.30;;;16.30;99.90;;;;;;5071339;28;20195;-67
2021/12/10 11:35:33;;;;;;;0.30;0.30;;;16.30;99.90;;;;;;5068583;28;20275;-73
2021/12/10 11:38:19;;;;;;;0.20;0.20;;;16.30;99.90;;;;;;5070629;28;20175;-69
2021/12/10 11:41:04;;;;;;;0.67;0.30;;;16.30;99.90;;;;;;5070904;28;20171;-71
2021/12/10 11:47:02;;;;;;;0.83;0.30;;;16.30;99.90;;;;;;5068003;28;20207;-71
2021/12/10 11:49:39;;;;;;;0.83;0.40;;;16.30;99.90;;;;;;5069252;28;20180;-74
2021/12/10 11:52:12;;;;;;;0.20;0.20;;;16.20;99.90;;;;;;5071344;28;20191;-64
2021/12/10 11:54:43;;;;;;;1.77;0.43;;;16.20;99.90;;;;;;5074749;28;20230;-72
2021/12/10 11:57:22;;;;;;;0.30;0.30;;;16.20;99.90;;;;;;5071266;28;20184;-69
2021/12/10 11:59:58;;;;;;;0.37;0.33;;;16.20;99.90;;;;;;5074798;28;20194;-71
2021/12/10 12:02:33;;;;;;;1.87;0.30;;;16.10;99.90;;;;;;5073580;28;20217;-72
2021/12/10 12:05:03;;;;;;;0.80;0.30;;;16.10;99.90;;;;;;5071406;28;20183;-71
2021/12/10 12:07:40;;;;;;;0.20;0.20;;;16.10;99.90;;;;;;5073808;28;20233;-73
2021/12/10 12:10:31;;;;;;;0.50;0.33;;;16.10;99.90;;;;;;5069232;28;20672;-70
2021/12/10 12:13:24;;;;;;;0.23;0.23;;;16.20;99.90;;;;;;5073125;28;20230;-67
2021/12/10 12:15:51;;;;;;;0.30;0.30;;;16.20;99.90;;;;;;5073376;28;20678;-64
2021/12/10 12:18:25;;;;;;;0.30;0.30;;;16.20;99.90;;;;;;5074361;28;20519;-67
2021/12/10 12:27:10;;;;;;;0.30;0.30;;;16.20;99.90;;;;;;5072065;28;20214;-69
2021/12/10 12:29:51;;;;;;;0.47;0.27;;;16.20;99.90;;;;;;5074259;28;20262;-65
2021/12/10 12:32:22;;;;;;;1.07;0.33;;;16.20;99.90;;;;;;5072560;28;20188;-65
2021/12/10 12:34:51;;;;;;;0.53;0.30;;;16.20;99.90;;;;;;5073705;28;20191;-65
2021/12/10 12:37:21;;;;;;;0.20;0.20;;;16.20;99.90;;;;;;5072467;28;20240;-65
2021/12/10 12:39:55;;;;;;;0.67;0.40;;;16.20;99.90;;;;;;5072167;28;20314;-69
2021/12/10 12:42:30;;;;;;;0.50;0.30;;;16.20;99.90;;;;;;5073098;28;20240;-72
2021/12/10 12:45:03;;;;;;;1.20;0.50;;;16.20;99.90;;;;;;5073067;28;20614;-73
2021/12/10 12:47:42;;;;;;;1.40;0.50;;;16.30;99.90;;;;;;5072973;28;20179;-65
2021/12/10 12:50:19;;;;;;;0.73;0.40;;;16.20;99.90;;;;;;5068388;28;20650;-72
2021/12/10 12:52:59;;;;;;;2.17;0.40;;;16.30;99.90;;;;;;5071780;28;20181;-69
2021/12/10 12:55:32;;;;;;;0.30;0.30;;;16.20;99.90;;;;;;5073371;28;20769;-64
2021/12/10 12:58:15;;;;;;;0.83;0.40;;;16.20;99.90;;;;;;5073291;28;20575;-66
2021/12/10 13:01:06;;;;;;;0.80;0.40;;;16.20;99.90;;;;;;5073043;28;20193;-70
2021/12/10 13:03:43;;;;;;;0.33;0.33;;;16.20;99.90;;;;;;5069022;28;20280;-64
2021/12/10 13:06:19;;;;;;;0.40;0.30;;;16.20;99.90;;;;;;5070493;28;20193;-66
2021/12/10 13:09:13;;;;;;;1.17;0.40;;;16.20;99.90;;;;;;5073271;28;20202;-71
2021/12/10 13:12:26;;;;;;;2.10;0.37;;;16.30;99.90;;;;;;5069243;28;20193;-68
2021/12/10 13:14:54;;;;;;;1.13;0.50;;;16.30;99.90;;;;;;5067746;28;20194;-69
2021/12/10 13:17:23;;;;;;;1.70;0.40;;;16.30;99.90;;;;;;5071743;28;20175;-72
2021/12/10 13:19:53;;;;;;;2.00;0.30;;;16.20;99.90;;;;;;5073126;28;20187;-67
2021/12/10 13:22:26;;;;;;;0.47;0.30;;;16.20;99.90;;;;;;5071159;28;20320;-74
2021/12/10 13:25:03;;;;;;;0.70;0.40;;;16.20;99.90;;;;;;5072795;28;20179;-73
2021/12/10 13:27:31;;;;;;;0.83;0.30;;;16.20;99.90;;;;;;5072415;28;20189;-72
2021/12/10 13:29:59;;;;;;;3.20;0.50;;;16.20;99.90;;;;;;5072578;28;20175;-74